Time;durP1;ratioP1;P1;durP2;ratioP2;P2;SDS_P1;SDS_P2;PMS_P1;PMS_P2;Temp;Humidity;BMP_temperature;BMP_pressure;BME280_temperature;BME280_humidity;BME280_pressure;Samples;Min_cycle;Max_cycle;Signal;HPM_P1;HPM_P2
2021/08/14 00:00:32;;;;;;;16.05;9.52;;;;;;;24.46;53.72;99175.00;5088620;28;20054;-88
2021/08/14 00:02:58;;;;;;;12.30;9.40;;;;;;;24.39;53.33;99161.03;5092852;28;20546;-88
2021/08/14 00:05:24;;;;;;;18.15;9.95;;;;;;;24.24;53.45;99154.94;5092660;28;20039;-88
2021/08/14 00:07:50;;;;;;;16.67;10.15;;;;;;;24.18;54.04;99150.84;5091629;28;20872;-88
2021/08/14 00:10:16;;;;;;;14.60;9.50;;;;;;;24.18;54.05;99155.41;5093108;28;20036;-88
2021/08/14 00:12:41;;;;;;;16.20;9.45;;;;;;;24.22;53.92;99167.78;5095549;28;20035;-89
2021/08/14 00:15:08;;;;;;;15.15;9.52;;;;;;;24.19;54.41;99173.47;5089415;28;20060;-87
2021/08/14 00:17:36;;;;;;;15.65;9.90;;;;;;;24.09;54.31;99180.56;5091703;28;20050;-88
2021/08/14 00:20:02;;;;;;;15.30;9.82;;;;;;;24.06;54.43;99167.22;5092659;28;20460;-87
2021/08/14 00:22:28;;;;;;;15.98;9.85;;;;;;;24.02;54.54;99174.75;5093053;28;20040;-87
2021/08/14 00:24:53;;;;;;;17.85;10.43;;;;;;;23.97;54.98;99166.94;5087613;28;20137;-89
2021/08/14 00:27:19;;;;;;;15.75;9.70;;;;;;;23.92;55.12;99171.88;5091222;28;20082;-88
2021/08/14 00:29:45;;;;;;;15.48;9.95;;;;;;;23.92;55.24;99166.44;5091132;28;20089;-88
2021/08/14 00:32:11;;;;;;;14.07;9.50;;;;;;;23.86;55.44;99161.47;5088006;28;20043;-88
2021/08/14 00:34:38;;;;;;;16.23;9.73;;;;;;;23.77;55.92;99154.03;5093770;28;20463;-89
2021/08/14 00:37:04;;;;;;;15.00;10.43;;;;;;;23.75;55.86;99162.28;5094571;28;20044;-88
2021/08/14 00:39:30;;;;;;;15.52;10.45;;;;;;;23.71;56.11;99163.44;5096618;28;20038;-89
2021/08/14 00:41:56;;;;;;;16.60;10.93;;;;;;;23.55;56.28;99150.16;5091371;28;20040;-88
2021/08/14 00:44:21;;;;;;;19.98;11.18;;;;;;;23.55;56.78;99155.59;5092869;28;20055;-88
2021/08/14 00:46:47;;;;;;;17.17;9.63;;;;;;;23.45;56.49;99146.41;5088278;28;20056;-89
2021/08/14 00:49:13;;;;;;;14.25;9.68;;;;;;;23.49;56.91;99164.19;5091525;28;20063;-88
2021/08/14 00:51:42;;;;;;;15.90;10.65;;;;;;;23.48;57.04;99157.00;5091024;28;20374;-88
2021/08/14 00:54:08;;;;;;;14.88;10.27;;;;;;;23.49;56.74;99160.63;5091424;28;20047;-88
2021/08/14 00:56:34;;;;;;;18.48;10.85;;;;;;;23.49;56.69;99160.63;5092377;28;20609;-88
2021/08/14 00:59:00;;;;;;;13.80;10.23;;;;;;;23.41;57.46;99161.16;5091859;28;20047;-88
2021/08/14 01:01:26;;;;;;;16.67;10.75;;;;;;;23.38;57.22;99161.41;5088383;28;20044;-87
2021/08/14 01:03:53;;;;;;;23.05;11.63;;;;;;;23.37;57.20;99154.22;5090478;28;20058;-87
2021/08/14 01:06:19;;;;;;;14.55;10.50;;;;;;;23.37;57.23;99154.22;5091403;28;20528;-88
2021/08/14 01:08:47;;;;;;;22.02;11.00;;;;;;;23.38;57.65;99166.84;5089076;28;20047;-89
2021/08/14 01:11:14;;;;;;;20.60;10.83;;;;;;;23.20;57.65;99150.03;5092568;28;20074;-87
2021/08/14 01:13:40;;;;;;;22.83;11.85;;;;;;;23.05;57.91;99145.72;5091784;28;20093;-88
2021/08/14 01:16:07;;;;;;;20.67;10.75;;;;;;;23.12;58.34;99169.59;5089215;28;20035;-88
2021/08/14 01:18:32;;;;;;;20.20;11.40;;;;;;;23.01;58.55;99152.34;5096458;28;20047;-88
2021/08/14 01:20:58;;;;;;;18.30;11.40;;;;;;;22.99;58.70;99168.72;5093309;28;20028;-88
2021/08/14 01:23:24;;;;;;;16.40;10.65;;;;;;;22.96;59.39;99175.22;5092168;28;20085;-89
2021/08/14 01:26:02;;;;;;;17.90;10.75;;;;;;;22.92;59.81;99181.88;5092187;28;20032;-87
2021/08/14 01:28:29;;;;;;;16.50;10.93;;;;;;;22.88;59.75;99176.75;5093656;28;20036;-88
2021/08/14 01:30:55;;;;;;;18.73;11.20;;;;;;;22.81;59.71;99164.59;5090278;28;20044;-88
2021/08/14 01:33:21;;;;;;;17.35;10.45;;;;;;;22.75;60.13;99155.09;5091657;28;20100;-89
2021/08/14 01:35:47;;;;;;;15.82;10.70;;;;;;;22.82;59.86;99183.50;5091410;28;20052;-88
2021/08/14 01:38:12;;;;;;;15.98;10.70;;;;;;;22.66;60.23;99158.41;5092023;28;20078;-88
2021/08/14 01:40:38;;;;;;;17.42;10.82;;;;;;;22.70;59.93;99160.81;5093799;28;20516;-88
2021/08/14 01:43:05;;;;;;;19.08;11.70;;;;;;;22.66;60.64;99175.59;5093539;28;20043;-88
2021/08/14 01:45:32;;;;;;;17.15;11.32;;;;;;;22.61;60.55;99172.31;5088504;28;20061;-89
2021/08/14 01:47:58;;;;;;;17.27;10.85;;;;;;;22.62;60.89;99168.63;5091712;28;20101;-88
2021/08/14 01:50:24;;;;;;;14.98;10.75;;;;;;;22.57;61.07;99176.19;5092607;28;20048;-88
2021/08/14 01:52:52;;;;;;;15.80;11.10;;;;;;;22.55;60.94;99179.03;5092418;28;20515;-88
2021/08/14 01:55:18;;;;;;;19.60;11.52;;;;;;;22.44;61.25;99164.50;5090425;28;20498;-88
2021/08/14 01:57:44;;;;;;;18.58;11.82;;;;;;;22.52;60.90;99179.25;5092331;28;20043;-88
2021/08/14 02:00:12;;;;;;;20.33;11.90;;;;;;;22.54;61.01;99179.13;5090265;28;20036;-88
2021/08/14 02:02:40;;;;;;;15.45;10.93;;;;;;;22.41;61.32;99165.56;5093191;28;20073;-88
2021/08/14 02:05:06;;;;;;;19.98;11.10;;;;;;;22.46;61.60;99176.09;5091601;28;20060;-88
2021/08/14 02:07:32;;;;;;;17.25;11.43;;;;;;;22.36;61.57;99162.34;5091302;28;20162;-88
2021/08/14 02:09:58;;;;;;;21.65;11.80;;;;;;;22.44;61.40;99167.19;5091332;28;20119;-88
2021/08/14 02:12:23;;;;;;;19.70;11.48;;;;;;;22.41;62.17;99176.41;5091501;28;20883;-88
2021/08/14 02:14:49;;;;;;;17.65;11.48;;;;;;;22.36;62.09;99170.47;5091456;28;20060;-88
2021/08/14 02:17:15;;;;;;;19.30;11.95;;;;;;;22.23;62.17;99159.59;5088442;28;20054;-88
2021/08/14 02:19:42;;;;;;;17.33;12.10;;;;;;;22.08;62.94;99156.06;5090673;28;20044;-88
2021/08/14 02:22:08;;;;;;;19.77;12.52;;;;;;;22.10;62.94;99153.25;5091473;28;20126;-88
2021/08/14 02:24:35;;;;;;;14.65;10.82;;;;;;;22.19;62.66;99168.88;5091196;28;20438;-87
2021/08/14 02:27:03;;;;;;;20.90;11.77;;;;;;;22.13;62.91;99161.16;5091288;28;20374;-89
2021/08/14 02:29:29;;;;;;;15.05;11.68;;;;;;;22.22;63.20;99175.91;5091653;28;20035;-88
2021/08/14 02:31:54;;;;;;;19.50;11.98;;;;;;;22.15;63.30;99178.19;5088220;28;20036;-88
2021/08/14 02:34:20;;;;;;;17.92;12.32;;;;;;;22.13;63.28;99182.81;5091349;28;20036;-89
2021/08/14 02:36:47;;;;;;;16.85;11.98;;;;;;;22.26;63.70;99162.09;5090798;28;20044;-88
2021/08/14 02:39:13;;;;;;;17.92;10.88;;;;;;;22.41;63.36;99173.72;5091491;28;20802;-88
2021/08/14 02:41:39;;;;;;;17.65;11.32;;;;;;;22.21;63.60;99177.75;5092802;28;20032;-88
2021/08/14 02:44:05;;;;;;;18.35;11.82;;;;;;;22.02;63.56;99150.19;5091007;28;20056;-88
2021/08/14 02:46:31;;;;;;;15.98;10.88;;;;;;;22.16;63.77;99174.47;5090255;28;20040;-87
2021/08/14 02:48:56;;;;;;;15.15;11.50;;;;;;;22.02;64.24;99166.44;5092150;28;20068;-87
2021/08/14 02:51:22;;;;;;;17.20;11.73;;;;;;;21.73;65.37;99163.88;5094358;28;20042;-86
2021/08/14 02:53:50;;;;;;;17.83;12.00;;;;;;;21.57;65.72;99145.06;5095659;28;20040;-86
2021/08/14 02:56:16;;;;;;;20.02;11.63;;;;;;;21.56;66.22;99166.78;5096186;28;20044;-88
2021/08/14 02:58:42;;;;;;;17.67;12.13;;;;;;;21.63;65.91;99171.72;5094896;28;20043;-88
2021/08/14 03:01:07;;;;;;;15.95;11.48;;;;;;;21.75;65.98;99170.03;5091809;28;20081;-88
2021/08/14 03:03:33;;;;;;;16.30;11.38;;;;;;;21.95;64.94;99174.13;5094865;28;20044;-88
2021/08/14 03:05:59;;;;;;;16.55;11.02;;;;;;;21.97;64.57;99144.22;5094346;28;20078;-87
2021/08/14 03:08:25;;;;;;;16.45;12.10;;;;;;;22.09;64.24;99178.59;5094652;28;20083;-88
2021/08/14 03:10:52;;;;;;;15.73;11.30;;;;;;;21.89;64.41;99153.72;5095427;28;20047;-88
2021/08/14 03:13:18;;;;;;;16.73;12.30;;;;;;;21.70;64.97;99148.69;5095566;28;20366;-87
2021/08/14 03:15:44;;;;;;;16.23;11.82;;;;;;;21.66;64.88;99140.88;5091276;28;20093;-88
2021/08/14 03:18:09;;;;;;;14.25;11.43;;;;;;;21.62;65.33;99147.44;5093861;28;20040;-88
2021/08/14 03:20:35;;;;;;;17.50;11.65;;;;;;;21.70;65.23;99173.03;5095463;28;20028;-89
2021/08/14 03:23:01;;;;;;;15.30;11.32;;;;;;;21.69;65.23;99178.56;5095974;28;20044;-88
2021/08/14 03:25:27;;;;;;;19.88;12.68;;;;;;;21.74;65.25;99184.53;5092839;28;20040;-88
2021/08/14 03:27:55;;;;;;;17.35;11.35;;;;;;;21.76;64.72;99179.91;5094513;28;20043;-88
2021/08/14 03:30:20;;;;;;;15.75;11.50;;;;;;;21.78;65.04;99180.66;5093103;28;20029;-88
2021/08/14 03:32:47;;;;;;;17.13;11.85;;;;;;;21.69;65.10;99174.03;5093959;28;20050;-88
2021/08/14 03:35:14;;;;;;;14.60;11.00;;;;;;;21.68;65.00;99179.53;5094284;28;20054;-88
2021/08/14 03:37:40;;;;;;;16.77;11.90;;;;;;;21.62;64.65;99163.69;5094019;28;20047;-88
2021/08/14 03:40:07;;;;;;;14.60;11.27;;;;;;;21.73;64.58;99180.13;5093942;28;20040;-87
2021/08/14 03:42:33;;;;;;;17.70;11.60;;;;;;;21.70;64.24;99180.28;5093831;28;20044;-88
2021/08/14 03:45:00;;;;;;;16.13;11.05;;;;;;;21.70;64.92;99191.13;5090798;28;20055;-88
2021/08/14 03:47:26;;;;;;;20.10;11.68;;;;;;;21.62;64.98;99182.63;5093692;28;20040;-88
2021/08/14 03:49:52;;;;;;;15.05;10.90;;;;;;;21.71;64.50;99188.31;5093636;28;20508;-88
2021/08/14 03:52:19;;;;;;;16.58;11.43;;;;;;;21.58;64.72;99181.09;5094515;28;20397;-88
2021/08/14 03:54:47;;;;;;;16.42;11.65;;;;;;;21.48;64.77;99173.59;5093665;28;20032;-89
2021/08/14 03:57:12;;;;;;;17.70;12.55;;;;;;;21.46;65.26;99183.66;5094282;28;20036;-88
2021/08/14 03:59:38;;;;;;;18.17;11.45;;;;;;;21.46;65.34;99194.47;5095351;28;20032;-88
2021/08/14 04:02:05;;;;;;;16.88;11.45;;;;;;;21.33;65.34;99178.13;5091571;28;20055;-87
2021/08/14 04:04:31;;;;;;;18.02;11.82;;;;;;;21.41;65.52;99201.13;5093892;28;20047;-88
2021/08/14 04:06:57;;;;;;;15.65;11.40;;;;;;;21.28;65.75;99187.53;5093562;28;20051;-87
2021/08/14 04:09:23;;;;;;;16.65;11.15;;;;;;;21.34;66.03;99203.38;5094322;28;20123;-88
2021/08/14 04:11:48;;;;;;;16.75;11.93;;;;;;;21.36;65.58;99206.84;5094733;28;20044;-87
2021/08/14 04:14:14;;;;;;;17.40;11.60;;;;;;;21.25;65.75;99179.59;5093704;28;20039;-88
2021/08/14 04:16:40;;;;;;;18.65;11.40;;;;;;;21.24;65.59;99185.97;5090798;28;20447;-88
2021/08/14 04:19:08;;;;;;;15.75;12.05;;;;;;;21.39;65.89;99203.94;5093224;28;20501;-88
2021/08/14 04:21:34;;;;;;;18.73;12.10;;;;;;;21.38;66.01;99204.00;5094680;28;20441;-88
2021/08/14 04:24:00;;;;;;;19.38;11.45;;;;;;;21.27;65.88;99193.88;5094490;28;20036;-88
2021/08/14 04:26:28;;;;;;;20.73;12.10;;;;;;;21.35;66.15;99210.50;5094293;28;20123;-88
2021/08/14 04:28:54;;;;;;;18.00;11.90;;;;;;;21.28;66.07;99192.94;5094615;28;20032;-89
2021/08/14 04:31:20;;;;;;;17.60;11.63;;;;;;;21.23;66.38;99186.94;5091334;28;20512;-88
2021/08/14 04:33:46;;;;;;;16.45;11.93;;;;;;;21.33;66.24;99207.03;5093245;28;20047;-88
2021/08/14 04:36:13;;;;;;;17.70;12.65;;;;;;;21.30;66.45;99199.97;5092851;28;20039;-88
2021/08/14 04:38:39;;;;;;;19.40;12.85;;;;;;;21.32;66.39;99216.13;5093020;28;20043;-89
2021/08/14 04:41:04;;;;;;;18.50;12.68;;;;;;;21.33;66.62;99209.72;5092754;28;20036;-87
2021/08/14 04:43:30;;;;;;;18.98;12.43;;;;;;;21.37;66.26;99211.28;5093671;28;20516;-88
2021/08/14 04:45:56;;;;;;;20.08;12.63;;;;;;;21.38;66.33;99217.53;5090477;28;20090;-89
2021/08/14 04:48:22;;;;;;;19.13;12.13;;;;;;;21.31;66.43;99214.38;5092969;28;20043;-89
2021/08/14 04:50:48;;;;;;;16.77;12.57;;;;;;;21.36;65.99;99214.06;5092569;28;20135;-89
2021/08/14 04:53:15;;;;;;;16.73;12.50;;;;;;;21.30;66.42;99199.13;5092845;28;20028;-89
2021/08/14 04:55:41;;;;;;;16.77;12.75;;;;;;;21.40;66.63;99212.91;5092693;28;20111;-89
2021/08/14 04:58:06;;;;;;;18.42;11.45;;;;;;;21.37;66.38;99200.44;5094180;28;20123;-89
2021/08/14 05:00:32;;;;;;;17.20;11.57;;;;;;;21.37;66.13;99194.19;5090676;28;20515;-89
2021/08/14 05:02:58;;;;;;;19.42;12.40;;;;;;;21.45;65.91;99198.16;5093917;28;20379;-89
2021/08/14 05:05:24;;;;;;;16.83;12.27;;;;;;;21.69;65.62;99222.75;5093559;28;20390;-89
2021/08/14 05:07:49;;;;;;;15.75;12.13;;;;;;;21.70;65.92;99220.91;5091974;28;20513;-89
2021/08/14 05:10:17;;;;;;;17.13;12.82;;;;;;;21.66;65.58;99206.69;5093462;28;20085;-89
2021/08/14 05:12:43;;;;;;;17.52;13.00;;;;;;;21.82;64.79;99225.50;5093939;28;20683;-86
2021/08/14 05:15:10;;;;;;;18.00;11.65;;;;;;;21.85;64.94;99214.47;5088626;28;20044;-87
2021/08/14 05:17:35;;;;;;;16.27;12.23;;;;;;;22.01;64.38;99229.69;5092012;28;20062;-89
2021/08/14 05:20:01;;;;;;;20.40;12.32;;;;;;;22.08;64.40;99222.91;5092941;28;20048;-87
2021/08/14 05:22:27;;;;;;;17.98;12.80;;;;;;;22.13;63.85;99228.88;5091962;28;20059;-89
2021/08/14 05:24:53;;;;;;;19.48;12.57;;;;;;;22.12;63.49;99232.53;5092624;28;20066;-90
2021/08/14 05:27:20;;;;;;;16.98;11.88;;;;;;;22.13;63.37;99223.47;5091304;28;20096;-87
2021/08/14 05:29:46;;;;;;;16.75;12.15;;;;;;;22.44;62.29;99233.09;5095440;28;20409;-88
2021/08/14 05:32:13;;;;;;;16.63;11.18;;;;;;;22.79;60.78;99232.50;5090056;28;20135;-88
2021/08/14 05:34:38;;;;;;;16.65;11.65;;;;;;;22.87;60.49;99219.28;5093252;28;20068;-88
2021/08/14 05:37:05;;;;;;;17.50;11.70;;;;;;;23.19;59.46;99227.00;5093130;28;20070;-88
2021/08/14 05:39:30;;;;;;;18.33;12.35;;;;;;;23.33;59.36;99228.69;5092038;28;20470;-87
2021/08/14 05:41:56;;;;;;;17.90;12.30;;;;;;;23.53;58.47;99225.41;5091842;28;20059;-88
2021/08/14 05:44:23;;;;;;;20.98;11.98;;;;;;;23.65;58.25;99220.06;5091473;28;20853;-87
2021/08/14 05:46:50;;;;;;;17.88;11.85;;;;;;;23.75;57.44;99191.25;5088841;28;20040;-88
2021/08/14 05:49:15;;;;;;;17.55;12.00;;;;;;;24.14;56.66;99219.16;5092106;28;20052;-88
2021/08/14 05:51:41;;;;;;;20.05;12.35;;;;;;;24.30;55.75;99214.25;5091611;28;20085;-90
2021/08/14 05:54:07;;;;;;;18.55;11.75;;;;;;;24.53;54.91;99220.69;5092032;28;20080;-88
2021/08/14 05:56:33;;;;;;;22.00;12.32;;;;;;;24.48;54.88;99202.94;5089168;28;20069;-87
2021/08/14 05:58:59;;;;;;;18.92;12.35;;;;;;;24.68;54.36;99218.63;5093319;28;20071;-89
2021/08/14 06:01:26;;;;;;;19.05;12.57;;;;;;;24.59;54.53;99198.47;5089754;28;20109;-88
2021/08/14 06:03:52;;;;;;;17.40;12.63;;;;;;;24.73;54.99;99210.97;5092723;28;20572;-88
2021/08/14 06:06:18;;;;;;;20.55;12.30;;;;;;;24.95;54.02;99212.84;5090904;28;20093;-88
2021/08/14 06:08:43;;;;;;;15.98;11.98;;;;;;;25.10;53.22;99229.81;5092236;28;20074;-88
2021/08/14 06:11:09;;;;;;;18.15;12.30;;;;;;;25.12;53.19;99226.97;5091457;28;20029;-88
2021/08/14 06:13:35;;;;;;;17.08;11.77;;;;;;;25.07;52.83;99205.56;5091592;28;20075;-89
2021/08/14 06:16:03;;;;;;;19.50;12.27;;;;;;;25.23;53.13;99218.84;5088663;28;20036;-88
2021/08/14 06:18:30;;;;;;;15.52;10.70;;;;;;;25.33;52.53;99227.09;5091633;28;20169;-89
2021/08/14 06:20:56;;;;;;;16.67;12.00;;;;;;;25.09;52.78;99219.03;5090157;28;20111;-90
2021/08/14 06:23:22;;;;;;;17.45;12.20;;;;;;;24.81;53.71;99210.38;5091645;28;20132;-89
2021/08/14 06:25:48;;;;;;;16.48;11.93;;;;;;;24.59;54.58;99227.47;5091406;28;20036;-89
2021/08/14 06:28:15;;;;;;;19.63;11.43;;;;;;;24.74;54.58;99222.69;5096156;28;20040;-89
2021/08/14 06:30:41;;;;;;;16.35;11.25;;;;;;;24.89;54.13;99226.91;5092799;28;20042;-89
2021/08/14 06:33:06;;;;;;;17.23;11.98;;;;;;;24.59;54.53;99222.03;5095448;28;20469;-89
2021/08/14 06:35:34;;;;;;;17.38;12.25;;;;;;;24.46;54.17;99207.63;5095812;28;20569;-88
2021/08/14 06:37:59;;;;;;;18.42;12.15;;;;;;;24.57;54.33;99215.84;5094902;28;20050;-88
2021/08/14 06:40:25;;;;;;;18.50;12.73;;;;;;;24.52;54.33;99237.09;5095185;28;20393;-89
2021/08/14 06:42:51;;;;;;;19.02;12.35;;;;;;;24.60;54.68;99238.25;5095145;28;20040;-88
2021/08/14 06:45:17;;;;;;;17.88;12.63;;;;;;;24.80;54.31;99233.97;5092012;28;20374;-88
2021/08/14 06:47:42;;;;;;;16.50;11.57;;;;;;;25.07;52.72;99232.78;5095045;28;20131;-89
2021/08/14 06:50:09;;;;;;;14.95;10.98;;;;;;;25.37;52.17;99240.38;5095086;28;20039;-88
2021/08/14 06:52:36;;;;;;;13.65;10.00;;;;;;;25.78;50.92;99237.97;5094773;28;20040;-88
2021/08/14 06:55:03;;;;;;;15.93;11.68;;;;;;;25.88;50.22;99225.34;5093659;28;20039;-90
2021/08/14 06:57:28;;;;;;;15.13;11.23;;;;;;;25.91;49.71;99208.72;5094894;28;20470;-90
2021/08/14 06:59:54;;;;;;;14.98;11.27;;;;;;;25.73;50.24;99205.66;5091932;28;20127;-89
2021/08/14 07:02:20;;;;;;;15.63;10.60;;;;;;;25.94;49.70;99230.28;5098611;28;20056;-88
2021/08/14 07:04:46;;;;;;;14.88;10.88;;;;;;;26.04;50.45;99227.66;5096893;28;20035;-87
2021/08/14 07:07:15;;;;;;;15.73;11.25;;;;;;;26.10;50.15;99212.66;5094622;28;20078;-87
2021/08/14 07:09:42;;;;;;;15.50;11.50;;;;;;;26.47;50.47;99218.56;5094519;28;20028;-88
2021/08/14 07:12:08;;;;;;;18.17;11.75;;;;;;;26.58;49.42;99234.03;5094406;28;20055;-87
2021/08/14 07:14:34;;;;;;;16.77;10.93;;;;;;;27.01;48.39;99224.84;5095054;28;20051;-87
2021/08/14 07:17:00;;;;;;;16.63;10.93;;;;;;;27.34;46.88;99222.88;5091767;28;20048;-88
2021/08/14 07:19:25;;;;;;;14.20;11.80;;;;;;;27.52;46.32;99220.34;5094550;28;20127;-89
2021/08/14 07:21:51;;;;;;;15.70;10.73;;;;;;;27.74;45.35;99219.28;5094045;28;20066;-89
2021/08/14 07:24:17;;;;;;;14.05;11.18;;;;;;;27.89;44.61;99206.09;5094453;28;20032;-88
2021/08/14 07:26:45;;;;;;;14.00;10.77;;;;;;;28.15;43.39;99215.50;5093995;28;20190;-87
2021/08/14 07:29:10;;;;;;;13.50;10.70;;;;;;;28.27;43.66;99200.66;5095983;28;20048;-88
2021/08/14 07:31:36;;;;;;;14.60;10.35;;;;;;;28.47;42.38;99209.75;5092719;28;20089;-87
2021/08/14 07:34:02;;;;;;;15.75;10.45;;;;;;;28.60;42.38;99198.50;5094443;28;20040;-89
2021/08/14 07:36:28;;;;;;;13.25;10.77;;;;;;;28.81;42.45;99211.16;5095943;28;20031;-88
2021/08/14 07:38:54;;;;;;;14.23;10.43;;;;;;;28.95;42.81;99215.28;5094501;28;20044;-88
2021/08/14 07:41:19;;;;;;;15.45;10.32;;;;;;;29.06;42.22;99182.25;5093759;28;20035;-88
2021/08/14 07:43:47;;;;;;;17.02;10.88;;;;;;;29.35;41.74;99198.63;5092896;28;20040;-90
2021/08/14 07:46:12;;;;;;;15.95;10.88;;;;;;;29.49;40.90;99175.31;5091896;28;20039;-89
2021/08/14 07:48:38;;;;;;;16.20;10.90;;;;;;;29.87;39.83;99195.34;5095212;28;20131;-89
2021/08/14 07:51:04;;;;;;;16.15;9.82;;;;;;;30.11;40.40;99200.22;5094688;28;20057;-89
2021/08/14 07:53:31;;;;;;;13.85;10.80;;;;;;;30.17;39.49;99199.59;5095324;28;20036;-90
2021/08/14 07:55:57;;;;;;;13.23;10.73;;;;;;;30.16;39.62;99195.09;5092734;28;20051;-88
2021/08/14 07:58:23;;;;;;;18.50;11.13;;;;;;;29.83;40.34;99202.13;5093819;28;20393;-89
2021/08/14 08:00:50;;;;;;;13.13;9.98;;;;;;;30.16;39.09;99192.38;5093461;28;20043;-90
2021/08/14 08:03:16;;;;;;;13.95;10.07;;;;;;;30.32;38.28;99188.97;5096308;28;20442;-87
2021/08/14 08:05:42;;;;;;;13.63;10.32;;;;;;;30.24;38.00;99183.38;5091251;28;20036;-89
2021/08/14 08:08:08;;;;;;;13.48;10.13;;;;;;;30.39;37.96;99184.56;5093522;28;20044;-88
2021/08/14 08:10:35;;;;;;;12.82;10.10;;;;;;;30.64;38.28;99168.28;5093456;28;20119;-88
2021/08/14 08:13:01;;;;;;;12.38;9.65;;;;;;;30.81;36.19;99180.25;5093816;28;20122;-89
2021/08/14 08:15:27;;;;;;;12.30;9.70;;;;;;;30.91;36.05;99183.78;5090403;28;20036;-89
2021/08/14 08:17:55;;;;;;;12.85;9.60;;;;;;;30.99;35.36;99177.47;5093203;28;20036;-88
2021/08/14 08:20:21;;;;;;;12.18;9.57;;;;;;;31.10;35.22;99171.72;5093502;28;20466;-88
2021/08/14 08:22:48;;;;;;;15.63;9.20;;;;;;;31.36;35.05;99179.91;5093891;28;20036;-88
2021/08/14 08:25:15;;;;;;;17.98;9.93;;;;;;;31.50;34.67;99190.31;5094412;28;20509;-89
2021/08/14 08:27:44;;;;;;;13.75;9.50;;;;;;;31.73;34.48;99184.22;5092785;28;20044;-90
2021/08/14 08:30:11;;;;;;;13.13;9.63;;;;;;;31.47;34.51;99178.78;5089811;28;20068;-88
2021/08/14 08:32:37;;;;;;;12.05;9.73;;;;;;;31.83;35.68;99182.16;5094387;28;20055;-88
2021/08/14 08:35:06;;;;;;;14.77;9.88;;;;;;;31.95;34.85;99184.63;5091251;28;20068;-89
2021/08/14 08:37:31;;;;;;;12.75;9.60;;;;;;;31.84;34.85;99178.41;5092778;28;20032;-89
2021/08/14 08:39:57;;;;;;;12.77;9.38;;;;;;;31.76;34.09;99186.63;5092845;28;20040;-89
2021/08/14 08:42:23;;;;;;;15.25;10.02;;;;;;;31.66;33.85;99163.88;5092605;28;20063;-90
2021/08/14 08:44:49;;;;;;;14.10;9.82;;;;;;;32.09;34.31;99162.81;5090277;28;20063;-89
2021/08/14 08:47:17;;;;;;;15.02;9.90;;;;;;;32.44;33.94;99174.53;5091884;28;20040;-90
2021/08/14 08:49:53;;;;;;;16.70;10.65;;;;;;;32.47;34.08;99157.69;5092919;28;20044;-88
2021/08/14 08:52:21;;;;;;;13.63;9.55;;;;;;;32.64;32.89;99168.69;5091585;28;20044;-90
2021/08/14 08:54:47;;;;;;;;;;;;;;;33.00;32.46;99173.81;5093036;28;20127;-90
2021/08/14 08:57:13;;;;;;;12.68;9.48;;;;;;;33.24;32.19;99175.66;5093887;28;19951;-90
2021/08/14 08:59:39;;;;;;;14.63;9.65;;;;;;;33.27;31.93;99164.31;5094040;28;20050;-90
2021/08/14 09:02:18;;;;;;;14.20;9.98;;;;;;;33.53;30.87;99164.88;5091819;28;20032;-90
2021/08/14 09:04:44;;;;;;;13.32;9.88;;;;;;;33.73;29.64;99162.56;5094319;28;20055;-89
2021/08/14 09:07:27;;;;;;;13.35;9.52;;;;;;;33.38;30.08;99163.91;5093742;28;20489;-87
2021/08/14 09:09:57;;;;;;;11.32;8.98;;;;;;;32.97;30.49;99150.25;5091753;28;20044;-88
2021/08/14 09:12:29;;;;;;;12.80;8.80;;;;;;;33.37;29.93;99158.56;5093107;28;20081;-89
2021/08/14 09:14:54;;;;;;;11.55;9.38;;;;;;;33.71;28.96;99150.00;5089485;28;20031;-90
2021/08/14 09:17:25;;;;;;;12.35;8.63;;;;;;;33.91;28.21;99158.66;5092290;28;20136;-90
2021/08/14 09:20:04;;;;;;;12.40;9.27;;;;;;;34.21;27.58;99156.94;5092791;28;20489;-90
2021/08/14 09:22:32;;;;;;;13.18;9.05;;;;;;;34.37;26.50;99155.94;5095802;28;20511;-90
2021/08/14 09:25:10;;;;;;;11.30;8.25;;;;;;;34.44;25.77;99139.47;5093963;28;20040;-90
2021/08/14 09:27:47;;;;;;;;;;;;;;;34.70;26.43;99141.84;5091621;28;20044;-90
2021/08/14 09:30:13;;;;;;;;;;;;;;;34.72;25.25;99142.53;5091491;28;20014;-89
2021/08/14 09:32:38;;;;;;;15.10;8.48;;;;;;;34.95;25.35;99145.22;5094060;28;19963;-90
2021/08/14 09:35:05;;;;;;;9.52;8.20;;;;;;;35.15;26.01;99138.09;5092075;28;20044;-89
2021/08/14 09:37:37;;;;;;;12.27;8.57;;;;;;;35.26;25.41;99133.16;5092080;28;20056;-89
2021/08/14 09:40:05;;;;;;;13.30;8.55;;;;;;;35.33;25.15;99132.22;5091520;28;20052;-90
2021/08/14 09:42:49;;;;;;;11.13;8.82;;;;;;;35.34;24.22;99127.53;5088710;28;20028;-90
2021/08/14 09:45:17;;;;;;;10.25;8.25;;;;;;;35.44;24.09;99127.22;5090278;28;20048;-89
2021/08/14 09:47:49;;;;;;;10.13;8.45;;;;;;;34.83;24.47;99128.28;5092040;28;20063;-90
2021/08/14 09:50:15;;;;;;;11.63;8.05;;;;;;;35.03;24.61;99124.94;5092461;28;20048;-90
2021/08/14 09:52:44;;;;;;;11.88;8.10;;;;;;;34.92;24.31;99110.56;5091310;28;20032;-90
2021/08/14 09:55:14;;;;;;;13.15;8.35;;;;;;;35.10;24.19;99129.50;5088955;28;20123;-90
2021/08/14 09:57:41;;;;;;;11.00;8.30;;;;;;;35.20;24.16;99120.97;5092740;28;20437;-91
2021/08/14 10:00:09;;;;;;;9.95;8.25;;;;;;;35.47;24.15;99113.88;5091727;28;20420;-91
2021/08/14 10:02:36;;;;;;;;;;;;;;;35.09;22.79;99116.75;5094410;28;20039;-90
2021/08/14 10:05:02;;;;;;;10.70;7.55;;;;;;;35.14;22.26;99118.97;5096072;28;19926;-90
2021/08/14 10:07:27;;;;;;;9.10;8.20;;;;;;;35.40;23.73;99101.03;5097324;28;20061;-89
2021/08/14 10:09:54;;;;;;;11.40;8.55;;;;;;;35.56;23.85;99096.09;5096816;28;20032;-90
2021/08/14 10:12:21;;;;;;;9.73;8.23;;;;;;;35.73;23.29;99106.97;5097791;28;20059;-89
2021/08/14 10:14:49;;;;;;;16.13;9.10;;;;;;;35.78;23.08;99104.47;5093619;28;20093;-90
2021/08/14 10:17:16;;;;;;;;;;;;;;;35.83;22.58;99109.41;5097551;28;20090;-89
2021/08/14 10:19:42;;;;;;;10.20;8.57;;;;;;;35.81;22.79;99105.97;5097765;28;19978;-90
2021/08/14 10:22:09;;;;;;;12.35;7.85;;;;;;;35.80;22.17;99091.28;5097803;28;20339;-89
2021/08/14 10:24:36;;;;;;;12.10;8.18;;;;;;;35.74;22.23;99087.41;5096442;28;20198;-90
2021/08/14 10:27:09;;;;;;;12.35;8.30;;;;;;;35.93;20.14;99091.41;5099522;28;20043;-90
2021/08/14 10:29:51;;;;;;;10.52;7.35;;;;;;;35.97;20.79;99095.50;5093305;28;20555;-88
2021/08/14 10:32:45;;;;;;;13.48;8.00;;;;;;;36.11;21.31;99090.97;5092087;28;20062;-90
2021/08/14 10:35:38;;;;;;;9.73;8.05;;;;;;;35.78;21.56;99082.31;5091223;28;20520;-88
2021/08/14 10:38:04;;;;;;;10.35;7.63;;;;;;;35.87;22.02;99081.16;5082242;28;20095;-90
2021/08/14 10:41:00;;;;;;;9.60;7.85;;;;;;;36.08;22.10;99083.06;5095595;28;20032;-91
2021/08/14 10:44:03;;;;;;;10.35;8.02;;;;;;;36.27;21.61;99081.56;5093901;28;20179;-89
2021/08/14 10:46:44;;;;;;;12.50;7.40;;;;;;;36.35;21.04;99077.81;5092016;28;20036;-90
2021/08/14 10:49:11;;;;;;;9.43;7.30;;;;;;;36.40;19.73;99075.28;5097090;28;20036;-90
2021/08/14 10:52:09;;;;;;;8.87;7.17;;;;;;;36.45;19.57;99072.75;5096511;28;20113;-90
2021/08/14 10:55:10;;;;;;;9.05;6.68;;;;;;;36.08;20.69;99066.44;5097267;28;20032;-89
2021/08/14 10:57:47;;;;;;;11.25;7.03;;;;;;;35.90;19.09;99063.31;5095690;28;20028;-91
2021/08/14 11:00:21;;;;;;;11.20;6.45;;;;;;;35.76;18.25;99060.41;5093451;28;20046;-91
2021/08/14 11:02:58;;;;;;;9.75;6.07;;;;;;;35.56;18.57;99056.53;5095011;28;20044;-90
2021/08/14 11:05:25;;;;;;;12.13;7.30;;;;;;;35.36;19.74;99054.38;5094796;28;20559;-90
2021/08/14 11:07:51;;;;;;;9.32;6.72;;;;;;;35.75;19.41;99055.06;5096867;28;20064;-88
2021/08/14 11:10:30;;;;;;;10.02;6.60;;;;;;;35.96;19.95;99044.00;5097179;28;20036;-90
2021/08/14 11:12:55;;;;;;;13.05;6.95;;;;;;;35.76;18.39;99038.28;5096012;28;20039;-91
2021/08/14 11:15:24;;;;;;;9.02;6.70;;;;;;;35.91;19.29;99042.84;5093881;28;20040;-91
2021/08/14 11:17:52;;;;;;;9.60;6.53;;;;;;;35.97;19.57;99026.31;5096705;28;20067;-90
2021/08/14 11:20:45;;;;;;;;;;;;;;;35.98;17.76;99038.28;5094167;28;20440;-92
2021/08/14 11:23:25;;;;;;;8.20;5.93;;;;;;;36.13;18.33;99040.97;5009040;28;19921;-90